createdAt,value
2022-08-07T00:00:40.647Z,0.00
2022-08-07T00:02:35.238Z,0.00
2022-08-07T00:02:44.368Z,0.00
2022-08-07T00:03:39.986Z,0.00
2022-08-07T00:04:41.376Z,0.00
2022-08-07T00:05:40.366Z,0.00
2022-08-07T00:06:40.940Z,0.00
2022-08-07T00:07:41.819Z,0.00
2022-08-07T00:08:44.536Z,0.00
2022-08-07T00:09:40.876Z,0.00
2022-08-07T00:10:47.641Z,0.00
2022-08-07T00:11:53.882Z,0.00
2022-08-07T00:12:57.879Z,0.00
2022-08-07T00:13:44.851Z,0.00
2022-08-07T00:14:44.230Z,0.00
2022-08-07T00:15:46.792Z,0.00
2022-08-07T00:16:42.927Z,0.00
2022-08-07T00:17:42.034Z,0.00
2022-08-07T00:18:42.165Z,0.00
2022-08-07T00:20:01.007Z,0.00
2022-08-07T00:20:43.475Z,0.00
2022-08-07T00:21:57.202Z,0.00
2022-08-07T00:22:43.661Z,0.00
2022-08-07T00:23:43.743Z,0.00
2022-08-07T00:24:42.935Z,0.00
2022-08-07T00:25:43.027Z,0.00
2022-08-07T00:26:49.127Z,0.00
2022-08-07T00:27:52.384Z,0.00
2022-08-07T00:28:46.008Z,0.00
2022-08-07T00:29:44.626Z,0.00
2022-08-07T00:30:43.723Z,0.00
2022-08-07T00:31:43.852Z,0.00
2022-08-07T00:32:45.071Z,0.00
2022-08-07T00:33:47.784Z,0.00
2022-08-07T00:34:44.203Z,0.00
2022-08-07T00:35:49.034Z,0.00
2022-08-07T00:36:45.452Z,0.00
2022-08-07T00:37:48.374Z,0.00
2022-08-07T00:38:44.679Z,0.00
2022-08-07T00:39:45.305Z,0.00
2022-08-07T00:40:45.927Z,0.00
2022-08-07T00:41:53.321Z,0.00
2022-08-07T00:42:46.238Z,0.00
2022-08-07T00:43:59.195Z,0.00
2022-08-07T00:44:46.472Z,0.00
2022-08-07T00:45:46.601Z,0.00
2022-08-07T00:46:45.805Z,0.00
2022-08-07T00:48:08.915Z,0.00
2022-08-07T00:48:49.727Z,0.00
2022-08-07T00:50:19.864Z,0.00
2022-08-07T00:50:51.311Z,0.00
2022-08-07T00:51:57.503Z,0.00
2022-08-07T00:52:47.712Z,0.00
2022-08-07T00:53:55.014Z,0.00
2022-08-07T00:54:53.770Z,0.00
2022-08-07T00:56:02.665Z,0.00
2022-08-07T00:56:49.869Z,0.00
2022-08-07T00:57:56.042Z,0.00
2022-08-07T00:58:49.687Z,0.00
2022-08-07T00:59:47.313Z,0.00
2022-08-07T01:00:53.541Z,0.00
2022-08-07T01:01:48.675Z,0.00
2022-08-07T01:02:47.855Z,0.00
2022-08-07T01:03:56.981Z,0.00
2022-08-07T01:04:49.009Z,0.00
2022-08-07T01:05:53.516Z,0.00
2022-08-07T01:06:53.841Z,0.00
2022-08-07T01:07:48.349Z,0.00
2022-08-07T01:08:53.030Z,0.00
2022-08-07T01:10:06.578Z,0.00
2022-08-07T01:10:54.400Z,0.00
2022-08-07T01:12:23.439Z,0.00
2022-08-07T01:12:53.949Z,0.00
2022-08-07T01:13:55.821Z,0.00
2022-08-07T01:14:50.320Z,0.00
2022-08-07T01:16:01.086Z,0.00
2022-08-07T01:16:50.589Z,0.00
2022-08-07T01:17:49.733Z,0.00
2022-08-07T01:18:49.879Z,0.00
2022-08-07T01:19:54.464Z,0.00
2022-08-07T01:20:57.277Z,0.00
2022-08-07T01:21:53.237Z,0.00
2022-08-07T01:23:00.407Z,0.00
2022-08-07T01:23:51.490Z,0.00
2022-08-07T01:24:50.621Z,0.00
2022-08-07T01:25:55.741Z,0.00
2022-08-07T01:26:52.692Z,0.00
2022-08-07T01:27:51.609Z,0.00
2022-08-07T01:28:51.109Z,0.00
2022-08-07T01:29:51.187Z,0.00
2022-08-07T01:30:52.098Z,0.00
2022-08-07T01:31:51.437Z,0.00
2022-08-07T01:32:51.581Z,0.00
2022-08-07T01:33:57.428Z,0.00
2022-08-07T01:34:52.877Z,0.00
2022-08-07T01:35:54.326Z,0.00
2022-08-07T01:36:52.655Z,0.00
2022-08-07T01:37:53.248Z,0.00
2022-08-07T01:38:52.388Z,0.00
2022-08-07T01:39:52.605Z,0.00
2022-08-07T01:40:52.736Z,0.00
2022-08-07T01:42:06.110Z,0.00
2022-08-07T01:42:58.685Z,0.00
2022-08-07T01:43:54.139Z,0.00
2022-08-07T01:44:53.338Z,0.00
2022-08-07T01:45:54.593Z,0.00
2022-08-07T01:46:53.498Z,0.00
2022-08-07T01:48:21.110Z,0.00
2022-08-07T01:48:54.759Z,0.00
2022-08-07T01:49:54.836Z,0.00
2022-08-07T01:50:55.596Z,0.00
2022-08-07T01:52:04.258Z,0.00
2022-08-07T01:52:55.419Z,0.00
2022-08-07T01:54:11.771Z,0.00
2022-08-07T01:54:55.726Z,0.00
2022-08-07T01:55:54.849Z,0.00
2022-08-07T01:56:55.154Z,0.00
2022-08-07T01:58:06.096Z,0.00
2022-08-07T01:58:56.223Z,0.00
2022-08-07T01:59:55.308Z,0.00
2022-08-07T02:01:09.488Z,0.00
2022-08-07T02:02:02.876Z,0.00
2022-08-07T02:03:18.835Z,0.00
2022-08-07T02:03:56.845Z,0.00
2022-08-07T02:04:57.276Z,0.00
2022-08-07T02:05:59.655Z,0.00
2022-08-07T02:06:57.206Z,0.00
2022-08-07T02:07:56.328Z,0.00
2022-08-07T02:08:56.568Z,0.00
2022-08-07T02:09:58.781Z,0.00
2022-08-07T02:10:57.900Z,0.00
2022-08-07T02:12:03.704Z,0.00
2022-08-07T02:12:58.076Z,0.00
2022-08-07T02:14:02.362Z,0.00
2022-08-07T02:14:58.427Z,0.00
2022-08-07T02:15:57.519Z,0.00
2022-08-07T02:16:57.626Z,0.00
2022-08-07T02:17:57.741Z,0.00
2022-08-07T02:18:57.887Z,0.00
2022-08-07T02:20:07.708Z,0.00
2022-08-07T02:20:59.139Z,0.00
2022-08-07T02:21:59.270Z,0.00
2022-08-07T02:22:59.751Z,0.00
2022-08-07T02:23:58.494Z,0.00
2022-08-07T02:24:58.674Z,0.00
2022-08-07T02:26:30.995Z,0.00
2022-08-07T02:27:01.367Z,0.00
2022-08-07T02:27:59.034Z,0.00
2022-08-07T02:28:59.216Z,0.00
2022-08-07T02:29:59.372Z,0.00
2022-08-07T02:30:59.524Z,0.00
2022-08-07T02:32:00.635Z,0.00
2022-08-07T02:33:00.165Z,0.00
2022-08-07T02:34:03.223Z,0.00
2022-08-07T02:35:01.139Z,0.00
2022-08-07T02:36:27.157Z,0.00
2022-08-07T02:37:01.256Z,0.00
2022-08-07T02:38:00.374Z,0.00
2022-08-07T02:39:00.617Z,0.00
2022-08-07T02:40:11.747Z,0.00
2022-08-07T02:41:04.105Z,0.00
2022-08-07T02:42:00.933Z,0.00
2022-08-07T02:43:01.065Z,0.00
2022-08-07T02:44:02.163Z,0.00
2022-08-07T02:45:01.292Z,0.00
2022-08-07T02:46:02.853Z,0.00
2022-08-07T02:47:01.535Z,0.00
2022-08-07T02:48:01.950Z,0.00
2022-08-07T02:49:03.340Z,0.00
2022-08-07T02:50:01.853Z,0.00
2022-08-07T02:51:02.033Z,0.00
2022-08-07T02:52:02.175Z,0.00
2022-08-07T02:53:06.283Z,0.00
2022-08-07T02:54:02.449Z,0.00
2022-08-07T02:55:02.588Z,0.00
2022-08-07T02:56:11.245Z,0.00
2022-08-07T02:57:03.876Z,0.00
2022-08-07T02:58:03.011Z,0.00
2022-08-07T02:59:03.233Z,0.00
2022-08-07T03:00:10.348Z,0.00
2022-08-07T03:01:04.454Z,0.00
2022-08-07T03:02:03.575Z,0.00
2022-08-07T03:03:05.987Z,0.00
2022-08-07T03:04:07.540Z,0.00
2022-08-07T03:05:06.772Z,0.00
2022-08-07T03:06:04.067Z,0.00
2022-08-07T03:07:10.335Z,0.00
2022-08-07T03:08:09.323Z,0.00
2022-08-07T03:09:05.404Z,0.00
2022-08-07T03:10:04.517Z,0.00
2022-08-07T03:11:04.630Z,0.00
2022-08-07T03:12:04.767Z,0.00
2022-08-07T03:13:04.943Z,0.00
2022-08-07T03:14:04.990Z,0.00
2022-08-07T03:15:07.428Z,0.00
2022-08-07T03:16:05.240Z,0.00
2022-08-07T03:17:05.393Z,0.00
2022-08-07T03:18:05.518Z,0.00
2022-08-07T03:19:05.684Z,0.00
2022-08-07T03:20:05.832Z,0.00
2022-08-07T03:21:08.524Z,0.00
2022-08-07T03:22:07.119Z,0.00
2022-08-07T03:23:06.272Z,0.00
2022-08-07T03:24:17.645Z,0.00
2022-08-07T03:25:07.470Z,0.00
2022-08-07T03:26:06.629Z,0.00
2022-08-07T03:27:09.101Z,0.00
2022-08-07T03:28:09.643Z,0.00
2022-08-07T03:29:10.421Z,0.00
2022-08-07T03:30:07.237Z,0.00
2022-08-07T03:31:07.329Z,0.00
2022-08-07T03:32:07.447Z,0.00
2022-08-07T03:33:10.084Z,0.00
2022-08-07T03:34:07.721Z,0.00
2022-08-07T03:35:17.988Z,0.00
2022-08-07T03:36:08.941Z,0.00
2022-08-07T03:37:12.337Z,0.00
2022-08-07T03:38:08.170Z,0.00
2022-08-07T03:39:09.386Z,0.00
2022-08-07T03:40:16.458Z,0.00
2022-08-07T03:41:10.358Z,0.00
2022-08-07T03:42:08.784Z,0.00
2022-08-07T03:43:13.757Z,0.00
2022-08-07T03:44:10.069Z,0.00
2022-08-07T03:45:09.197Z,0.00
2022-08-07T03:46:10.507Z,0.00
2022-08-07T03:47:13.521Z,0.00
2022-08-07T03:48:09.997Z,0.00
2022-08-07T03:49:09.766Z,0.00
2022-08-07T03:50:10.588Z,0.00
2022-08-07T03:51:10.259Z,0.00
2022-08-07T03:52:22.441Z,0.00
2022-08-07T03:53:11.375Z,0.00
2022-08-07T03:54:35.191Z,5.62
2022-08-07T03:55:11.659Z,5.62
2022-08-07T03:56:10.829Z,5.62
2022-08-07T03:57:10.977Z,5.62
2022-08-07T03:59:05.735Z,5.62
2022-08-07T03:59:14.776Z,5.62
2022-08-07T04:00:11.411Z,5.62
2022-08-07T04:01:11.810Z,11.25
2022-08-07T04:02:11.725Z,11.25
2022-08-07T04:03:11.894Z,11.25
2022-08-07T04:04:17.197Z,11.25
2022-08-07T04:05:13.086Z,11.25
2022-08-07T04:06:36.336Z,16.88
2022-08-07T04:07:16.802Z,16.88
2022-08-07T04:08:12.506Z,16.88
2022-08-07T04:09:15.650Z,16.88
2022-08-07T04:10:15.426Z,22.50
2022-08-07T04:12:23.897Z,22.50
2022-08-07T04:12:26.249Z,22.50
2022-08-07T04:13:15.331Z,22.50
2022-08-07T04:14:36.993Z,28.12
2022-08-07T04:15:14.484Z,28.12
2022-08-07T04:16:13.668Z,28.12
2022-08-07T04:17:20.287Z,33.75
2022-08-07T04:18:59.890Z,33.75
2022-08-07T04:19:15.661Z,33.75
2022-08-07T04:20:14.177Z,33.75
2022-08-07T04:21:14.297Z,39.38
2022-08-07T04:22:17.307Z,39.38
2022-08-07T04:23:19.187Z,39.38
2022-08-07T04:24:33.734Z,45.00
2022-08-07T04:25:15.909Z,45.00
2022-08-07T04:26:16.842Z,45.00
2022-08-07T04:27:25.419Z,50.62
2022-08-07T04:28:16.263Z,50.62
2022-08-07T04:29:16.371Z,50.62
2022-08-07T04:30:21.035Z,56.25
2022-08-07T04:31:20.024Z,56.25
2022-08-07T04:32:15.863Z,56.25
2022-08-07T04:33:16.027Z,61.88
2022-08-07T04:34:16.832Z,61.88
2022-08-07T04:35:16.297Z,61.88
2022-08-07T04:36:16.425Z,67.50
2022-08-07T04:37:20.495Z,67.50
2022-08-07T04:38:16.766Z,67.50
2022-08-07T04:39:17.646Z,73.12
2022-08-07T04:40:17.052Z,73.12
2022-08-07T04:41:19.115Z,73.12
2022-08-07T04:42:17.294Z,78.75
2022-08-07T04:43:17.395Z,78.75
2022-08-07T04:44:18.889Z,78.75
2022-08-07T04:45:21.059Z,78.75
2022-08-07T04:46:25.983Z,84.38
2022-08-07T04:47:23.622Z,84.38
2022-08-07T04:48:19.105Z,84.38
2022-08-07T04:49:25.579Z,90.00
2022-08-07T04:50:19.342Z,90.00
2022-08-07T04:51:18.496Z,90.00
2022-08-07T04:52:18.678Z,90.00
2022-08-07T04:53:39.895Z,95.62
2022-08-07T04:54:22.909Z,95.62
2022-08-07T04:58:11.330Z,101.25
2022-08-07T04:58:14.295Z,95.62
2022-08-07T04:58:23.555Z,95.62
2022-08-07T04:58:34.830Z,101.25
2022-08-07T05:00:11.476Z,101.25
2022-08-07T05:00:30.077Z,101.25
2022-08-07T05:01:20.892Z,106.88
2022-08-07T05:02:20.975Z,106.88
2022-08-07T05:04:00.334Z,106.88
2022-08-07T05:04:21.236Z,106.88
2022-08-07T05:05:52.631Z,112.50
2022-08-07T05:06:21.483Z,112.50
2022-08-07T05:07:21.142Z,112.50
2022-08-07T05:08:59.307Z,112.50
2022-08-07T05:09:43.034Z,118.12
2022-08-07T05:10:21.981Z,118.12
2022-08-07T05:11:24.481Z,118.12
2022-08-07T05:12:27.402Z,118.12
2022-08-07T05:14:52.379Z,123.75
2022-08-07T05:14:56.260Z,118.12
2022-08-07T05:15:23.825Z,123.75
2022-08-07T05:16:21.731Z,123.75
2022-08-07T05:17:52.698Z,123.75
2022-08-07T05:18:22.990Z,123.75
2022-08-07T05:19:32.581Z,123.75
2022-08-07T05:20:23.207Z,129.38
2022-08-07T05:21:59.532Z,129.38
2022-08-07T05:22:27.633Z,129.38
2022-08-07T05:23:23.160Z,129.38
2022-08-07T05:24:24.539Z,129.38
2022-08-07T05:25:35.633Z,129.38
2022-08-07T05:26:24.648Z,135.00
2022-08-07T05:28:15.980Z,135.00
2022-08-07T05:28:26.803Z,135.00
2022-08-07T05:29:23.361Z,135.00
2022-08-07T05:30:30.096Z,135.00
2022-08-07T05:31:24.532Z,140.62
2022-08-07T05:32:24.659Z,140.62
2022-08-07T05:33:23.798Z,140.62
2022-08-07T05:34:26.186Z,140.62
2022-08-07T05:35:24.080Z,140.62
2022-08-07T05:36:32.114Z,140.62
2022-08-07T05:37:25.689Z,140.62
2022-08-07T05:39:00.729Z,140.62
2022-08-07T05:40:13.365Z,146.25
2022-08-07T05:40:25.724Z,146.25
2022-08-07T05:41:24.898Z,146.25
2022-08-07T05:42:34.384Z,146.25
2022-08-07T05:43:50.226Z,146.25
2022-08-07T05:44:29.148Z,146.25
2022-08-07T05:45:46.338Z,146.25
2022-08-07T05:46:26.559Z,146.25
2022-08-07T05:47:38.094Z,151.88
2022-08-07T05:48:26.871Z,151.88
2022-08-07T05:49:25.765Z,151.88
2022-08-07T05:50:25.930Z,151.88
2022-08-07T05:51:25.998Z,151.88
2022-08-07T05:52:32.565Z,151.88
2022-08-07T05:54:13.096Z,151.88
2022-08-07T05:54:44.271Z,151.88
2022-08-07T05:56:02.403Z,157.50
2022-08-07T05:56:30.140Z,157.50
2022-08-07T05:57:30.491Z,157.50
2022-08-07T05:58:36.126Z,157.50
2022-08-07T05:59:28.093Z,157.50
2022-08-07T06:00:27.195Z,157.50
2022-08-07T06:01:27.304Z,157.50
2022-08-07T06:02:29.224Z,157.50
2022-08-07T06:03:27.472Z,157.50
2022-08-07T06:04:30.146Z,157.50
2022-08-07T06:05:28.537Z,163.12
2022-08-07T06:06:29.546Z,163.12
2022-08-07T06:08:14.392Z,163.12
2022-08-07T06:08:30.874Z,163.12
2022-08-07T06:10:04.348Z,163.12
2022-08-07T06:10:29.329Z,163.12
2022-08-07T06:11:28.674Z,163.12
2022-08-07T06:12:32.959Z,163.12
2022-08-07T06:14:10.856Z,168.75
2022-08-07T06:14:30.275Z,168.75
2022-08-07T06:15:39.210Z,168.75
2022-08-07T06:16:30.100Z,168.75
2022-08-07T06:17:32.140Z,168.75
2022-08-07T06:18:30.297Z,168.75
2022-08-07T06:19:52.282Z,168.75
2022-08-07T06:20:49.873Z,174.38
2022-08-07T06:22:14.460Z,174.38
2022-08-07T06:22:33.333Z,174.38
2022-08-07T06:24:37.509Z,174.38
2022-08-07T06:24:45.569Z,174.38
2022-08-07T06:25:34.772Z,174.38
2022-08-07T06:26:31.327Z,174.38
2022-08-07T06:27:59.718Z,174.38
2022-08-07T06:28:31.605Z,174.38
2022-08-07T06:29:30.726Z,180.00
2022-08-07T06:30:35.742Z,180.00
2022-08-07T06:31:38.845Z,180.00
2022-08-07T06:32:32.669Z,180.00
2022-08-07T06:33:33.046Z,180.00
2022-08-07T06:34:31.365Z,180.00
2022-08-07T06:35:45.400Z,180.00
2022-08-07T06:36:35.179Z,185.62
2022-08-07T06:37:44.069Z,185.62
2022-08-07T06:38:32.825Z,185.62
2022-08-07T06:40:16.202Z,185.62
2022-08-07T06:40:35.067Z,185.62
2022-08-07T06:42:01.923Z,185.62
2022-08-07T06:42:35.234Z,191.25
2022-08-07T06:43:39.569Z,191.25
2022-08-07T06:44:34.011Z,191.25
2022-08-07T06:45:32.698Z,191.25
2022-08-07T06:46:35.251Z,191.25
2022-08-07T06:47:48.294Z,196.88
2022-08-07T06:48:34.036Z,196.88
2022-08-07T06:49:33.136Z,196.88
2022-08-07T06:50:33.280Z,196.88
2022-08-07T06:51:33.886Z,196.88
2022-08-07T06:52:35.700Z,202.50
2022-08-07T06:54:12.198Z,202.50
2022-08-07T06:55:33.270Z,202.50
2022-08-07T06:55:59.906Z,202.50
2022-08-07T06:56:35.027Z,202.50
2022-08-07T06:57:39.816Z,208.12
2022-08-07T06:58:35.283Z,208.12
2022-08-07T07:00:15.034Z,208.12
2022-08-07T07:00:35.527Z,213.75
2022-08-07T07:01:43.813Z,230.62
2022-08-07T07:02:53.792Z,253.12
2022-08-07T07:03:48.942Z,247.50
2022-08-07T07:04:36.087Z,236.25
2022-08-07T07:06:03.307Z,230.62
2022-08-07T07:06:39.416Z,230.62
2022-08-07T07:07:59.922Z,236.25
2022-08-07T07:08:39.958Z,236.25
2022-08-07T07:09:36.724Z,236.25
2022-08-07T07:10:35.838Z,236.25
2022-08-07T07:12:10.666Z,241.88
2022-08-07T07:12:37.058Z,241.88
2022-08-07T07:13:55.582Z,241.88
2022-08-07T07:14:37.307Z,247.50
2022-08-07T07:15:38.338Z,247.50
2022-08-07T07:16:39.230Z,247.50
2022-08-07T07:17:38.811Z,247.50
2022-08-07T07:18:47.704Z,247.50
2022-08-07T07:19:55.874Z,247.50
2022-08-07T07:20:38.034Z,253.12
2022-08-07T07:22:04.174Z,253.12
2022-08-07T07:24:05.991Z,253.12
2022-08-07T07:24:08.908Z,253.12
2022-08-07T07:24:38.546Z,253.12
2022-08-07T07:26:35.523Z,258.75
2022-08-07T07:26:38.855Z,258.75
2022-08-07T07:27:58.583Z,258.75
2022-08-07T07:28:48.280Z,258.75
2022-08-07T07:30:09.395Z,264.38
2022-08-07T07:30:39.694Z,264.38
2022-08-07T07:31:40.172Z,270.00
2022-08-07T07:32:39.475Z,292.50
2022-08-07T07:33:38.635Z,365.62
2022-08-07T07:34:39.656Z,371.25
2022-08-07T07:35:43.960Z,343.12
2022-08-07T07:36:40.452Z,315.00
2022-08-07T07:37:58.942Z,292.50
2022-08-07T07:38:40.276Z,281.25
2022-08-07T07:39:51.980Z,281.25
2022-08-07T07:40:40.541Z,281.25
2022-08-07T07:42:02.327Z,281.25
2022-08-07T07:42:40.757Z,281.25
2022-08-07T07:44:14.344Z,281.25
2022-08-07T07:44:41.017Z,281.25
2022-08-07T07:46:38.023Z,286.88
2022-08-07T07:46:55.200Z,286.88
2022-08-07T07:47:52.052Z,281.25
2022-08-07T07:48:41.516Z,281.25
2022-08-07T07:50:35.392Z,281.25
2022-08-07T07:50:41.777Z,281.25
2022-08-07T07:51:57.389Z,281.25
2022-08-07T07:52:42.039Z,286.88
2022-08-07T07:53:51.934Z,286.88
2022-08-07T07:54:50.854Z,286.88
2022-08-07T07:55:45.715Z,281.25
2022-08-07T07:56:42.658Z,286.88
2022-08-07T07:57:50.514Z,286.88
2022-08-07T07:58:42.797Z,286.88
2022-08-07T07:59:52.223Z,286.88
2022-08-07T08:00:43.059Z,286.88
2022-08-07T08:02:03.812Z,286.88
2022-08-07T08:03:04.720Z,286.88
2022-08-07T08:04:05.770Z,286.88
2022-08-07T08:04:43.633Z,286.88
2022-08-07T08:05:54.338Z,292.50
2022-08-07T08:06:50.913Z,292.50
2022-08-07T08:07:59.782Z,292.50
2022-08-07T08:08:44.066Z,292.50
2022-08-07T08:09:52.358Z,292.50
2022-08-07T08:10:44.299Z,292.50
2022-08-07T08:12:00.060Z,292.50
2022-08-07T08:12:52.233Z,298.12
2022-08-07T08:13:53.989Z,298.12
2022-08-07T08:14:44.787Z,298.12
2022-08-07T08:15:57.712Z,331.88
2022-08-07T08:18:36.531Z,388.12
2022-08-07T08:18:36.891Z,433.12
2022-08-07T08:18:45.315Z,466.88
2022-08-07T08:20:18.169Z,472.50
2022-08-07T08:20:45.586Z,450.00
2022-08-07T08:21:56.014Z,438.75
2022-08-07T08:22:55.845Z,438.75
2022-08-07T08:23:46.209Z,427.50
2022-08-07T08:24:46.650Z,427.50
2022-08-07T08:25:49.564Z,438.75
2022-08-07T08:26:45.319Z,433.12
2022-08-07T08:27:56.276Z,421.88
2022-08-07T08:28:46.581Z,421.88
2022-08-07T08:29:54.518Z,421.88
2022-08-07T08:30:51.392Z,405.00
2022-08-07T08:32:18.251Z,388.12
2022-08-07T08:32:49.090Z,393.75
2022-08-07T08:33:49.431Z,410.62
2022-08-07T08:34:47.379Z,405.00
2022-08-07T08:35:49.703Z,382.50
2022-08-07T08:36:46.621Z,371.25
2022-08-07T08:38:01.445Z,371.25
2022-08-07T08:38:47.876Z,376.88
2022-08-07T08:39:54.846Z,376.88
2022-08-07T08:40:48.091Z,376.88
2022-08-07T08:41:58.234Z,376.88
2022-08-07T08:42:48.343Z,376.88
2022-08-07T08:43:50.460Z,371.25
2022-08-07T08:44:48.600Z,376.88
2022-08-07T08:46:00.796Z,376.88
2022-08-07T08:46:48.843Z,376.88
2022-08-07T08:47:54.767Z,376.88
2022-08-07T08:48:51.065Z,376.88
2022-08-07T08:50:04.908Z,376.88
2022-08-07T08:50:49.350Z,376.88
2022-08-07T08:51:49.494Z,376.88
2022-08-07T08:52:53.806Z,376.88
2022-08-07T08:53:48.751Z,376.88
2022-08-07T08:54:48.878Z,376.88
2022-08-07T08:55:54.630Z,382.50
2022-08-07T08:56:50.109Z,382.50
2022-08-07T08:57:49.242Z,382.50
2022-08-07T08:58:50.468Z,388.12
2022-08-07T08:59:50.484Z,388.12
2022-08-07T09:00:52.645Z,388.12
2022-08-07T09:01:49.839Z,388.12
2022-08-07T09:02:52.489Z,393.75
2022-08-07T09:03:53.047Z,393.75
2022-08-07T09:04:51.045Z,393.75
2022-08-07T09:05:52.941Z,399.38
2022-08-07T09:06:50.337Z,399.38
2022-08-07T09:07:57.436Z,405.00
2022-08-07T09:08:51.540Z,410.62
2022-08-07T09:09:57.172Z,410.62
2022-08-07T09:10:51.812Z,416.25
2022-08-07T09:11:55.441Z,416.25
2022-08-07T09:12:52.997Z,421.88
2022-08-07T09:13:51.203Z,427.50
2022-08-07T09:14:51.360Z,427.50
2022-08-07T09:16:23.066Z,433.12
2022-08-07T09:16:52.592Z,433.12
2022-08-07T09:18:00.391Z,438.75
2022-08-07T09:18:53.293Z,444.38
2022-08-07T09:19:55.287Z,444.38
2022-08-07T09:21:57.905Z,450.00
2022-08-07T09:24:33.305Z,461.25
2022-08-07T09:24:52.443Z,450.00
2022-08-07T09:25:07.083Z,472.50
2022-08-07T09:25:58.827Z,523.12
2022-08-07T09:26:57.970Z,759.38
2022-08-07T09:28:00.691Z,1198.12
2022-08-07T09:30:00.560Z,1226.25
2022-08-07T09:30:04.786Z,922.50
2022-08-07T09:30:59.426Z,731.25
2022-08-07T09:31:58.605Z,652.50
2022-08-07T09:32:58.686Z,680.62
2022-08-07T09:33:59.807Z,675.00
2022-08-07T09:34:58.921Z,624.38
2022-08-07T09:36:04.889Z,624.38
2022-08-07T09:37:00.155Z,613.12
2022-08-07T09:38:00.477Z,573.75
2022-08-07T09:38:59.484Z,585.00
2022-08-07T09:40:00.643Z,607.50
2022-08-07T09:40:59.697Z,596.25
2022-08-07T09:42:05.848Z,601.88
2022-08-07T09:43:00.946Z,624.38
2022-08-07T09:44:06.092Z,613.12
2022-08-07T09:47:24.370Z,613.12
2022-08-07T09:47:49.909Z,658.12
2022-08-07T09:47:52.543Z,635.62
2022-08-07T09:48:05.207Z,669.38
2022-08-07T09:50:01.223Z,658.12
2022-08-07T09:50:18.977Z,663.75
2022-08-07T09:51:01.968Z,680.62
2022-08-07T09:52:15.852Z,680.62
2022-08-07T09:53:02.207Z,714.38
2022-08-07T09:54:02.890Z,770.62
2022-08-07T09:55:01.449Z,753.75
2022-08-07T09:56:03.443Z,720.00
2022-08-07T09:57:01.707Z,725.62
2022-08-07T09:58:01.829Z,736.88
2022-08-07T09:59:01.979Z,748.12
2022-08-07T10:00:03.377Z,753.75
2022-08-07T10:01:02.207Z,781.88
2022-08-07T10:02:03.399Z,810.00
2022-08-07T10:03:08.370Z,804.38
2022-08-07T10:04:14.202Z,826.88
2022-08-07T10:05:12.617Z,866.25
2022-08-07T10:06:08.983Z,905.62
2022-08-07T10:07:04.017Z,973.12
2022-08-07T10:08:03.259Z,1192.50
2022-08-07T10:09:03.279Z,1631.25
2022-08-07T10:10:03.476Z,2002.50
2022-08-07T10:12:00.627Z,2064.38
2022-08-07T10:12:15.198Z,2002.50
2022-08-07T10:13:04.790Z,1732.50
2022-08-07T10:14:04.878Z,1659.38
2022-08-07T10:15:04.019Z,1636.88
2022-08-07T10:16:05.105Z,1636.88
2022-08-07T10:17:04.310Z,1563.75
2022-08-07T10:18:05.430Z,1636.88
2022-08-07T10:19:04.529Z,1940.62
2022-08-07T10:20:05.650Z,1951.88
2022-08-07T10:21:19.950Z,1681.88
2022-08-07T10:22:15.833Z,1603.12
2022-08-07T10:23:07.625Z,1816.88
2022-08-07T10:24:08.474Z,1946.25
2022-08-07T10:25:05.284Z,2013.75
2022-08-07T10:26:05.432Z,2058.75
2022-08-07T10:27:06.690Z,1940.62
2022-08-07T10:28:05.667Z,1985.62
2022-08-07T10:29:05.821Z,1980.00
2022-08-07T10:30:06.412Z,2030.62
2022-08-07T10:31:11.316Z,2030.62
2022-08-07T10:32:36.396Z,1895.62
2022-08-07T10:33:08.389Z,1968.75
2022-08-07T10:34:17.925Z,2047.50
2022-08-07T10:35:09.166Z,2148.75
2022-08-07T10:36:11.331Z,2160.00
2022-08-07T10:37:12.399Z,2171.25
2022-08-07T10:38:21.676Z,2171.25
2022-08-07T10:39:08.463Z,2165.62
2022-08-07T10:40:08.832Z,2306.25
2022-08-07T10:41:07.294Z,2418.75
2022-08-07T10:42:09.288Z,1687.50
2022-08-07T10:43:08.564Z,1372.50
2022-08-07T10:44:07.963Z,1496.25
2022-08-07T10:45:07.834Z,1186.88
2022-08-07T10:46:07.946Z,1310.62
2022-08-07T10:47:11.788Z,2221.88
2022-08-07T10:48:08.672Z,1248.75
2022-08-07T10:49:08.298Z,2193.75
2022-08-07T10:50:08.446Z,2053.12
2022-08-07T10:51:16.439Z,517.50
2022-08-07T10:52:13.411Z,1181.25
2022-08-07T10:53:09.134Z,1951.88
2022-08-07T10:54:08.953Z,2244.38
2022-08-07T10:55:27.068Z,2283.75
2022-08-07T10:56:11.113Z,2407.50
2022-08-07T10:57:10.329Z,2475.00
2022-08-07T10:58:10.225Z,2272.50
2022-08-07T10:59:09.587Z,2379.38
2022-08-07T11:00:09.698Z,2514.38
2022-08-07T11:01:11.657Z,2508.75
2022-08-07T11:02:12.365Z,2525.62
2022-08-07T11:03:12.756Z,2688.75
2022-08-07T11:04:16.542Z,3003.75
2022-08-07T11:05:11.285Z,2767.50
2022-08-07T11:06:10.370Z,2520.00
2022-08-07T11:07:14.878Z,2801.25
2022-08-07T11:08:11.888Z,2986.88
2022-08-07T11:09:11.390Z,2581.88
2022-08-07T11:10:11.315Z,1428.75
2022-08-07T11:11:10.975Z,2880.00
2022-08-07T11:12:11.115Z,2655.00
2022-08-07T11:13:16.923Z,2649.38
2022-08-07T11:14:57.057Z,2660.62
2022-08-07T11:15:17.210Z,2626.88
2022-08-07T11:16:12.594Z,2638.12
2022-08-07T11:17:11.715Z,2559.38
2022-08-07T11:18:12.538Z,1530.00
2022-08-07T11:19:11.956Z,2604.38
2022-08-07T11:20:12.065Z,2835.00
2022-08-07T11:21:12.185Z,3133.12
2022-08-07T11:22:27.211Z,2790.00
2022-08-07T11:23:26.363Z,2885.62
2022-08-07T11:24:13.567Z,2835.00
2022-08-07T11:25:12.669Z,2908.12
2022-08-07T11:26:13.054Z,2818.12
2022-08-07T11:27:13.532Z,3110.62
2022-08-07T11:28:15.289Z,2581.88
2022-08-07T11:29:42.093Z,2570.62
2022-08-07T11:30:18.193Z,2818.12
2022-08-07T11:31:13.476Z,3105.00
2022-08-07T11:32:13.508Z,1096.88
2022-08-07T11:33:14.035Z,652.50
2022-08-07T11:34:16.332Z,618.75
2022-08-07T11:35:16.677Z,562.50
2022-08-07T11:36:15.077Z,556.88
2022-08-07T11:37:15.166Z,556.88
2022-08-07T11:38:17.318Z,573.75
2022-08-07T11:39:14.762Z,635.62
2022-08-07T11:40:19.156Z,781.88
2022-08-07T11:41:18.181Z,2283.75
2022-08-07T11:42:18.803Z,821.25
2022-08-07T11:43:15.395Z,3183.75
2022-08-07T11:44:18.641Z,2998.12
2022-08-07T11:45:15.078Z,748.12
2022-08-07T11:46:16.921Z,697.50
2022-08-07T11:47:15.309Z,669.38
2022-08-07T11:48:29.136Z,641.25
2022-08-07T11:49:51.171Z,596.25
2022-08-07T11:50:32.384Z,562.50
2022-08-07T11:51:41.817Z,618.75
2022-08-07T11:52:16.930Z,652.50
2022-08-07T11:53:16.047Z,646.88
2022-08-07T11:54:16.139Z,646.88
2022-08-07T11:55:19.122Z,916.88
2022-08-07T11:56:26.786Z,2626.88
2022-08-07T11:57:17.542Z,3425.62
2022-08-07T11:58:16.717Z,2317.50
2022-08-07T12:00:08.816Z,3363.75
2022-08-07T12:00:19.168Z,3436.88
2022-08-07T12:01:20.154Z,3571.88
2022-08-07T12:02:21.001Z,3583.12
2022-08-07T12:03:41.640Z,3386.25
2022-08-07T12:04:18.420Z,2120.62
2022-08-07T12:05:28.492Z,3375.00
2022-08-07T12:06:36.879Z,3555.00
2022-08-07T12:07:27.048Z,3583.12
2022-08-07T12:08:25.936Z,3442.50
2022-08-07T12:09:23.804Z,3555.00
2022-08-07T12:10:18.195Z,3729.38
2022-08-07T12:11:20.523Z,3436.88
2022-08-07T12:12:18.442Z,3628.12
2022-08-07T12:13:35.302Z,3757.50
2022-08-07T12:14:19.712Z,3588.75
2022-08-07T12:15:45.983Z,3645.00
2022-08-07T12:16:29.937Z,3701.25
2022-08-07T12:17:20.479Z,3330.00
2022-08-07T12:18:22.067Z,3363.75
2022-08-07T12:19:21.671Z,3470.62
2022-08-07T12:20:30.087Z,3268.12
2022-08-07T12:21:21.029Z,3369.38
2022-08-07T12:22:38.940Z,3352.50
2022-08-07T12:23:21.381Z,3825.00
2022-08-07T12:24:37.533Z,3735.00
2022-08-07T12:26:02.915Z,3667.50
2022-08-07T12:26:30.104Z,3948.75
2022-08-07T12:27:27.997Z,3892.50
2022-08-07T12:28:30.801Z,3375.00
2022-08-07T12:29:37.664Z,3588.75
2022-08-07T12:30:23.370Z,3600.00
2022-08-07T12:31:22.415Z,3622.50
2022-08-07T12:32:21.018Z,3498.75
2022-08-07T12:33:23.241Z,3571.88
2022-08-07T12:34:22.775Z,3695.62
2022-08-07T12:35:21.413Z,3639.38
2022-08-07T12:36:30.220Z,3611.25
2022-08-07T12:37:23.470Z,3498.75
2022-08-07T12:38:29.412Z,3796.88
2022-08-07T12:39:43.996Z,3436.88
2022-08-07T12:40:47.941Z,3639.38
2022-08-07T12:41:23.218Z,3864.38
2022-08-07T12:42:28.057Z,3976.88
2022-08-07T12:44:02.255Z,3903.75